Time;durP1;ratioP1;P1;durP2;ratioP2;P2;SDS_P1;SDS_P2;PMS_P1;PMS_P2;Temp;Humidity;BMP_temperature;BMP_pressure;BME280_temperature;BME280_humidity;BME280_pressure;Samples;Min_cycle;Max_cycle;Signal;HPM_P1;HPM_P2
2023/01/18 00:00:10;;;;;;;12.75;6.47;;;4.80;93.60;;;;;;5031107;28;20042;-68
2023/01/18 00:02:36;;;;;;;12.02;7.13;;;4.70;93.30;;;;;;5034835;28;20462;-68
2023/01/18 00:05:02;;;;;;;13.15;7.20;;;4.60;93.10;;;;;;5036227;28;20100;-68
2023/01/18 00:07:28;;;;;;;14.30;7.50;;;4.60;93.20;;;;;;5036935;28;20041;-68
2023/01/18 00:09:55;;;;;;;11.65;6.80;;;4.60;93.30;;;;;;5037377;28;20037;-68
2023/01/18 00:12:21;;;;;;;15.00;7.35;;;4.60;93.40;;;;;;5020650;28;20064;-68
2023/01/18 00:14:46;;;;;;;11.60;6.55;;;4.60;93.50;;;;;;5036300;28;20095;-68
2023/01/18 00:17:12;;;;;;;11.30;6.72;;;4.60;93.60;;;;;;5035887;28;20454;-68
2023/01/18 00:19:38;;;;;;;13.23;7.03;;;4.70;93.50;;;;;;5036153;28;20501;-68
2023/01/18 00:22:03;;;;;;;12.30;6.80;;;4.60;93.50;;;;;;5035797;28;20060;-68
2023/01/18 00:24:29;;;;;;;16.88;7.28;;;4.60;93.50;;;;;;5035282;28;20022;-68
2023/01/18 00:26:54;;;;;;;14.48;7.70;;;4.60;93.50;;;;;;5035649;28;20061;-68
2023/01/18 00:29:20;;;;;;;12.68;7.07;;;4.70;93.60;;;;;;5035537;28;20541;-68
2023/01/18 00:31:46;;;;;;;13.52;7.38;;;4.70;93.60;;;;;;5035601;28;20493;-68
2023/01/18 00:34:12;;;;;;;11.98;7.28;;;4.60;93.50;;;;;;5035263;28;20030;-67
2023/01/18 00:36:37;;;;;;;14.45;7.80;;;4.60;93.50;;;;;;5034570;28;20065;-68
2023/01/18 00:39:03;;;;;;;14.10;7.78;;;4.60;93.50;;;;;;5035243;28;20029;-68
2023/01/18 00:41:29;;;;;;;12.50;7.38;;;4.50;93.50;;;;;;5035191;28;20033;-68
2023/01/18 00:43:55;;;;;;;16.58;7.97;;;4.40;93.50;;;;;;5035376;28;20366;-68
2023/01/18 00:46:24;;;;;;;16.35;8.02;;;4.40;93.60;;;;;;5035806;28;20167;-68
2023/01/18 00:48:51;;;;;;;13.65;7.68;;;4.40;93.60;;;;;;5033940;28;20037;-68
2023/01/18 00:51:22;;;;;;;12.13;6.97;;;4.40;93.70;;;;;;5034139;28;20045;-67
2023/01/18 00:53:48;;;;;;;12.20;7.60;;;4.40;93.80;;;;;;5035167;28;20496;-68
2023/01/18 00:56:20;;;;;;;12.48;7.20;;;4.40;93.80;;;;;;5034846;28;20018;-68
2023/01/18 00:58:46;;;;;;;13.27;7.60;;;4.40;93.70;;;;;;5035516;28;20063;-68
2023/01/18 01:01:13;;;;;;;16.17;7.45;;;4.30;93.60;;;;;;5035308;28;20033;-68
2023/01/18 01:06:45;;;;;;;12.52;7.20;;;4.20;93.70;;;;;;5034715;28;20052;-68
2023/01/18 01:09:25;;;;;;;12.98;7.57;;;4.10;93.80;;;;;;5035125;28;20064;-68
2023/01/18 01:28:23;;;;;;;16.35;8.30;;;3.90;93.90;;;;;;5034529;28;20473;-68
2023/01/18 01:30:49;;;;;;;13.57;7.80;;;3.90;93.90;;;;;;5034482;28;20041;-77
2023/01/18 01:33:16;;;;;;;14.50;6.97;;;3.80;94.40;;;;;;5034097;28;20034;-77
2023/01/18 01:35:42;;;;;;;16.00;7.90;;;3.80;94.20;;;;;;5035248;28;20038;-77
2023/01/18 01:38:08;;;;;;;17.17;7.80;;;3.80;94.30;;;;;;5034088;28;20033;-78
2023/01/18 01:40:33;;;;;;;13.05;8.05;;;3.80;94.30;;;;;;5033416;28;20074;-78
2023/01/18 01:42:59;;;;;;;12.98;7.65;;;3.70;94.50;;;;;;5016924;28;20065;-77
2023/01/18 01:45:28;;;;;;;14.23;7.90;;;3.70;94.40;;;;;;5034837;28;20025;-78
2023/01/18 01:47:56;;;;;;;12.20;7.43;;;3.60;94.40;;;;;;5034995;28;20030;-77
2023/01/18 01:50:36;;;;;;;12.00;7.50;;;3.70;94.50;;;;;;5017039;28;20453;-77
2023/01/18 01:53:02;;;;;;;14.45;7.53;;;3.80;94.60;;;;;;5033979;28;20509;-77
2023/01/18 01:55:31;;;;;;;17.50;8.35;;;3.80;94.60;;;;;;5033903;28;20084;-77
2023/01/18 01:58:03;;;;;;;13.77;8.13;;;3.80;94.40;;;;;;5034550;28;20021;-77
2023/01/18 02:00:29;;;;;;;13.02;7.97;;;3.80;94.40;;;;;;5034231;28;20037;-78
2023/01/18 02:03:18;;;;;;;13.80;7.65;;;3.80;94.30;;;;;;5017386;28;20132;-78
2023/01/18 02:05:51;;;;;;;11.75;7.65;;;3.70;94.30;;;;;;5035127;28;20033;-78
2023/01/18 02:08:24;;;;;;;14.05;7.45;;;3.70;94.30;;;;;;5033804;28;20033;-78
2023/01/18 02:10:50;;;;;;;18.70;8.38;;;3.60;94.40;;;;;;5033366;28;20034;-78
2023/01/18 02:13:18;;;;;;;14.32;7.80;;;3.50;94.50;;;;;;5033579;28;20032;-78
2023/01/18 02:15:55;;;;;;;16.70;7.32;;;3.40;94.60;;;;;;5032984;28;20053;-78
2023/01/18 02:18:30;;;;;;;12.23;7.75;;;3.40;94.90;;;;;;5033224;28;20021;-78
2023/01/18 02:21:15;;;;;;;12.27;7.50;;;3.40;95.00;;;;;;5034796;28;20159;-78
2023/01/18 02:23:41;;;;;;;13.15;7.75;;;3.40;95.00;;;;;;5034746;28;20121;-78
2023/01/18 02:26:19;;;;;;;16.10;8.13;;;3.40;95.10;;;;;;5033152;28;20057;-77
2023/01/18 02:28:58;;;;;;;15.27;7.90;;;3.40;95.10;;;;;;5033342;28;20124;-78
2023/01/18 02:31:33;;;;;;;12.75;7.35;;;3.40;95.10;;;;;;5034673;28;20104;-77
2023/01/18 02:34:01;;;;;;;15.75;8.43;;;3.40;95.20;;;;;;5033972;28;20037;-77
2023/01/18 02:36:51;;;;;;;15.75;8.05;;;3.40;95.20;;;;;;5032937;28;20466;-77
2023/01/18 02:39:30;;;;;;;14.85;7.47;;;3.30;95.20;;;;;;5033875;28;20029;-77
2023/01/18 02:47:36;;;;;;;15.23;8.18;;;3.20;95.60;;;;;;5032853;28;20055;-78
2023/01/18 02:50:02;;;;;;;14.73;7.82;;;3.10;96.00;;;;;;5033790;28;20033;-78
2023/01/18 02:52:50;;;;;;;16.00;7.85;;;3.10;96.00;;;;;;5034030;28;20040;-79
2023/01/18 02:55:39;;;;;;;14.07;7.47;;;3.10;96.20;;;;;;5032742;28;20489;-78
2023/01/18 02:58:23;;;;;;;13.63;7.45;;;3.10;96.50;;;;;;5022499;28;20041;-79
2023/01/18 03:01:00;;;;;;;13.93;7.85;;;3.10;96.50;;;;;;5032481;28;20066;-78
2023/01/18 03:03:27;;;;;;;13.75;7.93;;;3.20;96.90;;;;;;5033856;28;20021;-78
2023/01/18 03:05:57;;;;;;;13.15;7.65;;;3.20;96.70;;;;;;5016090;28;20382;-77
2023/01/18 03:08:31;;;;;;;12.40;7.50;;;3.30;96.70;;;;;;5032031;28;20108;-77
2023/01/18 03:11:01;;;;;;;12.50;7.70;;;3.30;96.70;;;;;;5033676;28;20076;-78
2023/01/18 03:13:48;;;;;;;11.73;7.97;;;3.40;96.60;;;;;;5034184;28;20093;-78
2023/01/18 03:16:21;;;;;;;15.75;7.65;;;3.40;96.50;;;;;;5034118;28;20109;-78
2023/01/18 03:19:03;;;;;;;12.82;7.90;;;3.50;96.50;;;;;;5034101;28;20516;-78
2023/01/18 03:21:35;;;;;;;12.02;7.68;;;3.50;96.30;;;;;;5033064;28;20482;-78
2023/01/18 03:24:05;;;;;;;12.45;7.88;;;3.50;96.30;;;;;;5033482;28;20033;-78
2023/01/18 03:26:39;;;;;;;13.88;7.93;;;3.40;96.20;;;;;;5033449;28;20030;-78
2023/01/18 03:35:02;;;;;;;13.38;7.07;;;3.30;96.50;;;;;;5033591;28;20041;-78
2023/01/18 03:37:36;;;;;;;11.32;7.53;;;3.30;96.60;;;;;;5036023;28;20080;-78
2023/01/18 03:40:16;;;;;;;13.25;7.65;;;3.40;96.80;;;;;;5037197;28;20021;-78
2023/01/18 03:42:44;;;;;;;13.60;7.70;;;3.40;96.90;;;;;;5037431;28;20526;-78
2023/01/18 03:45:22;;;;;;;17.25;8.68;;;3.40;97.00;;;;;;5037313;28;20049;-78
2023/01/18 03:47:49;;;;;;;15.30;8.00;;;3.40;96.90;;;;;;5037408;28;20511;-78
2023/01/18 03:50:15;;;;;;;13.15;8.07;;;3.40;97.00;;;;;;5019936;28;20033;-78
2023/01/18 03:52:43;;;;;;;17.33;7.85;;;3.40;97.10;;;;;;5036477;28;20512;-78
2023/01/18 03:55:21;;;;;;;17.08;8.77;;;3.50;97.20;;;;;;5036166;28;20034;-78
2023/01/18 03:57:54;;;;;;;16.08;7.93;;;3.50;97.20;;;;;;5036999;28;20469;-78
2023/01/18 04:00:19;;;;;;;16.58;8.43;;;3.60;97.30;;;;;;5036397;28;20036;-77
2023/01/18 04:02:48;;;;;;;16.15;7.68;;;3.60;97.30;;;;;;5036418;28;20397;-79
2023/01/18 04:05:14;;;;;;;13.65;8.20;;;3.60;97.30;;;;;;5035710;28;20172;-79
2023/01/18 04:07:40;;;;;;;16.45;7.53;;;3.70;97.30;;;;;;5035190;28;20033;-78
2023/01/18 04:10:06;;;;;;;13.82;7.57;;;3.70;97.30;;;;;;5019454;28;20033;-78
2023/01/18 04:12:33;;;;;;;14.38;7.03;;;3.60;97.30;;;;;;5035302;28;20474;-78
2023/01/18 04:15:00;;;;;;;12.23;7.07;;;3.60;97.40;;;;;;5019548;28;20370;-78
2023/01/18 04:17:25;;;;;;;12.25;7.90;;;3.70;97.50;;;;;;5035333;28;20461;-78
2023/01/18 04:19:51;;;;;;;11.57;7.82;;;3.70;97.50;;;;;;5036342;28;20038;-78
2023/01/18 04:22:17;;;;;;;13.13;7.40;;;3.70;97.50;;;;;;5036730;28;20025;-78
2023/01/18 04:24:43;;;;;;;11.77;7.65;;;3.70;97.60;;;;;;5036406;28;20036;-78
2023/01/18 04:27:09;;;;;;;13.13;8.77;;;3.70;97.60;;;;;;5036521;28;20041;-79
2023/01/18 04:29:34;;;;;;;13.10;7.13;;;3.70;97.60;;;;;;5036849;28;20030;-78
2023/01/18 04:32:00;;;;;;;13.20;7.72;;;3.70;97.70;;;;;;5035022;28;20022;-78
2023/01/18 04:34:26;;;;;;;12.27;7.50;;;3.70;97.70;;;;;;5018877;28;20061;-78
2023/01/18 04:36:52;;;;;;;11.82;7.93;;;3.80;97.70;;;;;;5036380;28;20025;-78
2023/01/18 04:39:18;;;;;;;13.63;7.30;;;3.80;97.80;;;;;;5036106;28;20102;-78
2023/01/18 04:41:44;;;;;;;14.65;7.70;;;3.80;97.70;;;;;;5034967;28;20025;-78
2023/01/18 04:44:10;;;;;;;12.88;7.60;;;3.80;97.60;;;;;;5035791;28;20132;-78
2023/01/18 04:46:37;;;;;;;13.55;7.25;;;3.80;97.50;;;;;;5034752;28;20026;-79
2023/01/18 04:49:04;;;;;;;14.93;7.70;;;3.80;97.40;;;;;;5033703;28;20034;-78
2023/01/18 04:51:30;;;;;;;11.88;7.45;;;3.80;97.40;;;;;;5034719;28;20034;-78
2023/01/18 04:53:57;;;;;;;12.65;7.55;;;3.80;97.30;;;;;;5034941;28;20538;-79
2023/01/18 04:56:23;;;;;;;11.05;6.72;;;3.80;97.20;;;;;;5035278;28;20056;-78
2023/01/18 04:58:52;;;;;;;12.43;7.75;;;3.80;97.20;;;;;;5018046;28;20038;-78
2023/01/18 05:01:17;;;;;;;12.65;6.80;;;3.70;97.00;;;;;;5035731;28;20462;-78
2023/01/18 05:03:43;;;;;;;14.27;7.10;;;3.70;97.00;;;;;;5001248;28;20032;-78
2023/01/18 05:06:11;;;;;;;14.50;7.30;;;3.70;97.00;;;;;;5034769;28;20037;-78
2023/01/18 05:08:40;;;;;;;11.82;7.13;;;3.70;97.00;;;;;;5034319;28;20035;-78
2023/01/18 05:11:09;;;;;;;12.73;7.15;;;3.60;96.90;;;;;;5034211;28;20443;-78
2023/01/18 05:13:35;;;;;;;12.45;6.63;;;3.50;96.90;;;;;;5035480;28;20492;-78
2023/01/18 05:16:02;;;;;;;13.05;7.43;;;3.50;96.90;;;;;;5018513;28;20124;-78
2023/01/18 05:18:29;;;;;;;12.45;7.97;;;3.40;97.10;;;;;;5034557;28;20412;-78
2023/01/18 05:20:54;;;;;;;12.70;7.60;;;3.40;97.20;;;;;;5034480;28;20041;-78
2023/01/18 05:23:21;;;;;;;12.82;7.57;;;3.20;97.40;;;;;;5033984;28;20389;-78
2023/01/18 05:25:52;;;;;;;13.95;7.38;;;3.20;97.60;;;;;;5033929;28;20025;-78
2023/01/18 05:28:18;;;;;;;13.82;6.95;;;3.30;97.80;;;;;;5034215;28;20438;-78
2023/01/18 05:30:43;;;;;;;12.82;7.00;;;3.30;97.90;;;;;;5033638;28;20037;-78
2023/01/18 05:33:09;;;;;;;11.18;7.18;;;3.30;97.90;;;;;;5033668;28;20042;-78
2023/01/18 05:35:35;;;;;;;13.00;6.72;;;3.40;98.00;;;;;;5017330;28;20040;-78
2023/01/18 05:38:01;;;;;;;15.05;6.75;;;3.40;98.10;;;;;;5034981;28;20022;-78
2023/01/18 05:40:26;;;;;;;17.95;7.68;;;3.40;98.10;;;;;;5017223;28;20128;-78
2023/01/18 05:42:55;;;;;;;11.18;6.85;;;3.50;98.10;;;;;;5033735;28;20041;-78
2023/01/18 05:45:20;;;;;;;14.25;7.45;;;3.40;98.20;;;;;;5033120;28;20060;-78
2023/01/18 05:47:46;;;;;;;13.18;7.63;;;3.50;98.30;;;;;;5033404;28;20465;-77
2023/01/18 05:50:12;;;;;;;14.80;6.53;;;3.50;98.20;;;;;;5034698;28;20045;-78
2023/01/18 05:52:38;;;;;;;12.68;6.78;;;3.40;98.20;;;;;;5017536;28;20033;-78
2023/01/18 05:55:04;;;;;;;15.63;7.18;;;3.40;98.20;;;;;;5033510;28;20389;-78
2023/01/18 05:57:30;;;;;;;10.50;6.70;;;3.50;98.20;;;;;;5034658;28;20053;-78
2023/01/18 05:59:56;;;;;;;10.82;7.20;;;3.40;98.20;;;;;;5016711;28;20458;-78
2023/01/18 06:02:23;;;;;;;13.93;7.90;;;3.50;98.20;;;;;;5017064;28;20034;-78
2023/01/18 06:04:49;;;;;;;10.50;6.82;;;3.50;98.20;;;;;;5034594;28;20033;-78
2023/01/18 06:07:15;;;;;;;17.38;7.13;;;3.50;98.20;;;;;;5016696;28;20078;-78
2023/01/18 06:09:41;;;;;;;12.75;8.05;;;3.50;98.20;;;;;;5016700;28;20504;-78
2023/01/18 06:12:07;;;;;;;13.45;6.85;;;3.50;98.10;;;;;;5017168;28;20116;-78
2023/01/18 06:14:32;;;;;;;13.38;7.10;;;3.50;98.10;;;;;;5016644;28;20036;-78
2023/01/18 06:17:00;;;;;;;12.48;6.75;;;3.50;98.10;;;;;;5000366;28;20045;-78
2023/01/18 06:19:26;;;;;;;12.05;7.10;;;3.50;98.10;;;;;;5016623;28;20095;-78
2023/01/18 06:21:52;;;;;;;11.25;6.75;;;3.50;98.20;;;;;;5016791;28;20187;-78
2023/01/18 06:24:17;;;;;;;14.77;7.03;;;3.50;98.20;;;;;;5032794;28;20072;-78
2023/01/18 06:26:43;;;;;;;13.20;7.50;;;3.50;98.30;;;;;;5017043;28;20033;-79
2023/01/18 06:29:08;;;;;;;13.15;7.70;;;3.50;98.40;;;;;;5016890;28;20500;-78
2023/01/18 06:31:34;;;;;;;13.32;7.28;;;3.50;98.50;;;;;;5032477;28;20065;-78
2023/01/18 06:34:05;;;;;;;12.40;7.50;;;3.50;98.40;;;;;;5032629;28;20049;-79
2023/01/18 06:36:31;;;;;;;10.13;6.45;;;3.50;98.40;;;;;;5033450;28;20026;-78
2023/01/18 06:38:57;;;;;;;12.07;6.22;;;3.60;98.40;;;;;;5032450;28;20036;-78
2023/01/18 06:41:23;;;;;;;16.45;6.65;;;3.60;98.40;;;;;;5033518;28;20122;-78
2023/01/18 06:43:49;;;;;;;11.93;6.30;;;3.60;98.30;;;;;;5032229;28;20437;-79
2023/01/18 06:46:16;;;;;;;9.80;6.40;;;3.60;98.30;;;;;;5032817;28;20037;-77
2023/01/18 06:48:42;;;;;;;13.02;6.78;;;3.60;98.20;;;;;;5016126;28;20029;-81
2023/01/18 06:51:07;;;;;;;10.20;6.20;;;3.60;98.20;;;;;;4999371;28;20295;-79
2023/01/18 06:53:33;;;;;;;12.73;6.47;;;3.50;98.20;;;;;;5032739;28;20041;-77
2023/01/18 06:56:00;;;;;;;10.85;6.70;;;3.50;98.20;;;;;;5015919;28;20095;-79
2023/01/18 06:58:27;;;;;;;11.10;6.88;;;3.50;98.10;;;;;;5032909;28;20026;-78
2023/01/18 07:00:54;;;;;;;10.18;6.40;;;3.40;98.00;;;;;;5032260;28;20121;-78
2023/01/18 07:03:21;;;;;;;11.07;6.18;;;3.30;98.00;;;;;;5016509;28;20033;-79
2023/01/18 07:05:46;;;;;;;9.65;6.22;;;3.20;98.10;;;;;;5015926;28;20025;-78
2023/01/18 07:08:12;;;;;;;10.85;5.97;;;3.10;98.10;;;;;;4999549;28;20030;-78
2023/01/18 07:10:38;;;;;;;14.23;6.25;;;3.00;98.30;;;;;;5032179;28;20048;-78
2023/01/18 07:13:04;;;;;;;11.27;6.80;;;2.90;98.50;;;;;;5036068;28;20025;-78
2023/01/18 07:15:30;;;;;;;13.82;6.97;;;2.80;98.90;;;;;;5020268;28;20026;-78
2023/01/18 07:17:55;;;;;;;13.85;6.68;;;2.80;99.10;;;;;;5004430;28;20033;-78
2023/01/18 07:20:21;;;;;;;19.08;7.13;;;2.70;99.40;;;;;;5002784;28;20128;-73
2023/01/18 07:22:51;;;;;;;12.82;7.13;;;2.70;99.50;;;;;;5036095;28;20034;-74
2023/01/18 07:25:17;;;;;;;15.15;7.07;;;2.60;99.80;;;;;;5036246;28;20487;-74
2023/01/18 07:27:43;;;;;;;11.30;6.82;;;2.60;99.90;;;;;;5036233;28;20048;-73
2023/01/18 07:30:11;;;;;;;15.80;6.43;;;2.50;99.90;;;;;;5036926;28;20041;-73
2023/01/18 07:32:37;;;;;;;14.50;6.72;;;2.40;99.90;;;;;;5037904;28;20040;-73
2023/01/18 07:35:04;;;;;;;12.82;6.68;;;2.50;99.90;;;;;;5019871;28;20520;-74
2023/01/18 07:37:30;;;;;;;12.48;6.93;;;2.50;99.90;;;;;;5036926;28;20065;-73
2023/01/18 07:39:55;;;;;;;11.57;6.30;;;2.50;99.90;;;;;;5019320;28;20061;-73
2023/01/18 07:42:21;;;;;;;11.40;6.47;;;2.50;99.90;;;;;;5019248;28;20033;-73
2023/01/18 07:44:47;;;;;;;11.80;6.75;;;2.50;99.90;;;;;;5036978;28;20049;-73
2023/01/18 07:47:12;;;;;;;11.75;6.43;;;2.50;99.90;;;;;;5036788;28;20029;-73
2023/01/18 07:49:38;;;;;;;12.02;5.85;;;2.60;99.90;;;;;;5035613;28;20037;-72
2023/01/18 07:52:04;;;;;;;9.68;6.03;;;2.60;99.90;;;;;;5019781;28;20025;-73
2023/01/18 07:54:30;;;;;;;16.00;7.40;;;2.70;99.90;;;;;;5036993;28;20473;-73
2023/01/18 07:56:55;;;;;;;12.60;6.63;;;2.70;99.90;;;;;;5019216;28;20033;-73
2023/01/18 07:59:21;;;;;;;14.63;7.00;;;2.60;99.90;;;;;;5037016;28;20060;-73
2023/01/18 08:01:47;;;;;;;13.57;6.95;;;2.60;99.90;;;;;;5035644;28;20520;-79
2023/01/18 08:04:12;;;;;;;11.25;6.15;;;2.60;99.90;;;;;;5035402;28;20175;-79
2023/01/18 08:06:38;;;;;;;14.30;7.22;;;2.70;99.90;;;;;;5018694;28;20083;-79
2023/01/18 08:09:03;;;;;;;12.20;6.68;;;2.70;99.90;;;;;;5018837;28;20052;-73
2023/01/18 08:11:30;;;;;;;14.43;7.20;;;2.70;99.90;;;;;;5036470;28;20423;-74
2023/01/18 08:13:55;;;;;;;10.15;6.50;;;2.70;99.90;;;;;;5036524;28;20029;-74
2023/01/18 08:16:21;;;;;;;13.63;7.18;;;2.80;99.90;;;;;;5035281;28;20033;-73
2023/01/18 08:18:50;;;;;;;14.63;7.28;;;2.80;99.90;;;;;;5036342;28;20030;-75
2023/01/18 08:21:16;;;;;;;12.25;6.30;;;2.90;99.90;;;;;;5035470;28;20346;-78
2023/01/18 08:23:41;;;;;;;12.57;6.53;;;3.00;99.90;;;;;;5036653;28;20026;-81
2023/01/18 08:26:09;;;;;;;17.20;6.80;;;3.10;99.90;;;;;;5035622;28;20033;-73
2023/01/18 08:28:35;;;;;;;11.30;7.05;;;3.30;99.90;;;;;;5034831;28;20458;-73
2023/01/18 08:31:10;;;;;;;16.02;6.53;;;3.40;99.90;;;;;;5018394;28;20081;-73
2023/01/18 08:33:44;;;;;;;13.20;6.32;;;3.40;99.90;;;;;;5035080;28;20021;-75
2023/01/18 08:36:19;;;;;;;13.57;7.38;;;3.50;99.90;;;;;;5035979;28;20030;-73
2023/01/18 08:38:50;;;;;;;15.48;7.25;;;3.50;99.90;;;;;;5035685;28;20347;-72
2023/01/18 08:41:16;;;;;;;13.40;7.13;;;3.50;99.90;;;;;;5036166;28;20374;-72
2023/01/18 08:43:42;;;;;;;11.75;7.82;;;3.50;99.90;;;;;;5035657;28;20091;-72
2023/01/18 08:46:09;;;;;;;16.08;7.40;;;3.40;99.90;;;;;;5036230;28;20049;-72
2023/01/18 08:48:34;;;;;;;12.63;6.90;;;3.40;99.90;;;;;;5002452;28;20405;-72
2023/01/18 08:51:01;;;;;;;14.02;7.45;;;3.30;99.90;;;;;;5035992;28;20029;-72
2023/01/18 08:53:28;;;;;;;13.95;7.07;;;3.30;99.90;;;;;;5035891;28;20029;-73
2023/01/18 08:55:54;;;;;;;13.65;7.57;;;3.30;99.90;;;;;;5035463;28;20049;-73
2023/01/18 08:58:19;;;;;;;15.07;7.50;;;3.40;99.90;;;;;;5035351;28;20543;-73
2023/01/18 09:00:49;;;;;;;15.05;7.72;;;3.50;99.90;;;;;;5035727;28;20041;-73
2023/01/18 09:03:18;;;;;;;18.63;7.95;;;3.50;99.70;;;;;;5035214;28;20025;-72
2023/01/18 09:05:44;;;;;;;13.00;7.22;;;3.50;99.70;;;;;;5034466;28;20033;-73
2023/01/18 09:08:10;;;;;;;14.25;7.70;;;3.50;99.70;;;;;;5034151;28;20104;-75
2023/01/18 09:10:37;;;;;;;14.45;7.22;;;3.50;99.40;;;;;;5034561;28;20046;-73
2023/01/18 09:13:04;;;;;;;12.07;8.02;;;3.50;99.30;;;;;;5017358;28;20033;-76
2023/01/18 09:15:30;;;;;;;15.30;7.68;;;3.50;99.30;;;;;;5035252;28;20377;-72
2023/01/18 09:17:57;;;;;;;17.00;7.85;;;3.60;99.00;;;;;;5035294;28;20036;-72
2023/01/18 09:20:24;;;;;;;12.27;7.97;;;3.60;98.90;;;;;;5035166;28;20405;-72
2023/01/18 09:22:50;;;;;;;14.27;7.95;;;3.60;99.20;;;;;;5035527;28;20451;-73
2023/01/18 09:25:17;;;;;;;16.40;8.15;;;3.60;99.30;;;;;;5035086;28;20021;-73
2023/01/18 09:27:45;;;;;;;16.58;8.63;;;3.70;99.20;;;;;;5035011;28;20026;-73
2023/01/18 09:30:11;;;;;;;14.32;7.68;;;3.80;99.00;;;;;;5033668;28;20041;-71
2023/01/18 09:32:37;;;;;;;13.65;8.13;;;3.90;99.10;;;;;;5035556;28;20029;-75
2023/01/18 09:35:06;;;;;;;14.80;7.97;;;4.00;98.90;;;;;;5033059;28;20320;-75
2023/01/18 09:37:33;;;;;;;12.10;7.65;;;4.10;98.90;;;;;;5034460;28;20377;-75
2023/01/18 09:39:59;;;;;;;19.00;8.15;;;4.10;98.80;;;;;;5033564;28;20099;-75
2023/01/18 09:42:34;;;;;;;13.98;7.80;;;4.10;98.80;;;;;;5035256;28;20033;-74
2023/01/18 09:45:00;;;;;;;11.93;7.75;;;4.30;99.00;;;;;;5034591;28;20037;-73
2023/01/18 09:47:27;;;;;;;17.55;8.38;;;4.40;98.80;;;;;;5033101;28;20114;-72
2023/01/18 09:49:57;;;;;;;16.05;8.20;;;4.50;98.80;;;;;;5034883;28;20148;-72
2023/01/18 09:52:55;;;;;;;15.15;7.60;;;4.60;98.70;;;;;;5033751;28;20030;-72
2023/01/18 09:55:32;;;;;;;11.60;7.20;;;4.60;98.40;;;;;;5032978;28;20045;-72
2023/01/18 09:58:26;;;;;;;14.63;7.60;;;4.70;98.30;;;;;;5034280;28;20033;-72
2023/01/18 10:00:56;;;;;;;12.85;7.80;;;4.80;98.20;;;;;;5034278;28;20053;-72
2023/01/18 10:03:45;;;;;;;13.73;8.02;;;4.80;98.00;;;;;;5035197;28;20038;-72
2023/01/18 10:06:19;;;;;;;11.68;7.45;;;4.90;97.90;;;;;;5029112;28;20029;-72
2023/01/18 10:08:59;;;;;;;17.65;8.45;;;4.90;97.40;;;;;;5034464;28;20435;-74
2023/01/18 10:11:46;;;;;;;14.65;8.25;;;4.80;97.60;;;;;;5034322;28;20026;-74
2023/01/18 10:14:24;;;;;;;13.18;7.75;;;4.70;97.80;;;;;;5034308;28;20025;-73
2023/01/18 10:17:01;;;;;;;13.25;7.80;;;4.70;97.90;;;;;;5034308;28;20033;-75
2023/01/18 10:19:30;;;;;;;15.02;7.53;;;4.80;97.90;;;;;;5033688;28;20026;-76
2023/01/18 10:22:23;;;;;;;13.00;7.82;;;4.90;97.90;;;;;;5033379;28;20030;-75
2023/01/18 10:25:18;;;;;;;13.15;7.53;;;5.00;97.80;;;;;;5033113;28;20081;-78
2023/01/18 10:28:07;;;;;;;14.75;7.05;;;5.20;97.60;;;;;;5033908;28;20470;-77
2023/01/18 10:31:07;;;;;;;12.93;7.57;;;5.20;97.10;;;;;;5032440;28;20121;-76
2023/01/18 10:33:39;;;;;;;15.32;7.57;;;5.20;97.30;;;;;;5031809;28;20609;-76
2023/01/18 10:36:35;;;;;;;16.30;7.05;;;5.30;97.50;;;;;;5032487;28;20108;-75
2023/01/18 10:39:37;;;;;;;14.27;7.22;;;5.40;96.80;;;;;;5032714;28;20087;-76
2023/01/18 10:42:10;;;;;;;13.30;7.05;;;5.50;96.20;;;;;;5032912;28;20029;-75
2023/01/18 10:44:35;;;;;;;10.45;6.50;;;5.60;96.40;;;;;;5033633;28;20046;-76
2023/01/18 10:47:01;;;;;;;13.88;6.85;;;5.70;96.30;;;;;;5031850;28;20084;-75
2023/01/18 10:49:38;;;;;;;10.38;6.88;;;5.80;96.00;;;;;;5032645;28;20040;-76
2023/01/18 10:52:25;;;;;;;10.85;5.85;;;5.80;95.90;;;;;;5033914;28;20025;-77
2023/01/18 10:55:06;;;;;;;11.75;5.82;;;5.90;95.80;;;;;;5031885;28;20060;-76
2023/01/18 10:57:50;;;;;;;10.98;6.07;;;6.00;95.90;;;;;;5032783;28;20025;-76
2023/01/18 11:00:33;;;;;;;12.45;6.15;;;6.20;95.90;;;;;;5032467;28;20033;-76
2023/01/18 11:03:01;;;;;;;10.33;6.23;;;6.20;95.00;;;;;;5033756;28;20032;-76
2023/01/18 11:05:31;;;;;;;9.27;5.70;;;6.10;95.20;;;;;;5032154;28;20276;-75
2023/01/18 11:08:33;;;;;;;10.27;5.85;;;6.20;95.00;;;;;;5033463;28;20470;-76
2023/01/18 11:11:16;;;;;;;8.80;5.32;;;6.30;94.90;;;;;;5032933;28;20068;-76
2023/01/18 11:13:48;;;;;;;10.10;6.20;;;6.30;94.90;;;;;;5032054;28;20467;-75
2023/01/18 11:16:19;;;;;;;10.32;5.68;;;6.40;94.80;;;;;;5032734;28;20556;-76
2023/01/18 11:19:25;;;;;;;10.02;5.28;;;6.50;94.50;;;;;;5033891;28;20029;-76
2023/01/18 11:21:52;;;;;;;10.77;5.47;;;6.40;94.20;;;;;;5030524;28;20060;-75
2023/01/18 11:24:27;;;;;;;13.80;6.20;;;6.30;94.10;;;;;;5014683;28;20064;-75
2023/01/18 11:26:57;;;;;;;14.73;6.18;;;6.30;94.20;;;;;;5032264;28;20064;-75
2023/01/18 11:29:27;;;;;;;10.60;5.30;;;6.30;94.40;;;;;;5032157;28;20484;-75
2023/01/18 11:31:54;;;;;;;11.77;6.43;;;6.20;94.50;;;;;;5031860;28;20032;-75
2023/01/18 11:34:38;;;;;;;12.02;6.30;;;6.20;95.00;;;;;;5031835;28;20021;-75
2023/01/18 11:37:23;;;;;;;11.75;5.57;;;6.20;94.90;;;;;;5033169;28;20029;-75
2023/01/18 11:39:49;;;;;;;8.90;5.55;;;6.30;94.80;;;;;;5031481;28;20095;-75
2023/01/18 11:42:33;;;;;;;9.13;5.28;;;6.30;94.80;;;;;;5031780;28;20029;-74
2023/01/18 11:45:44;;;;;;;12.38;6.38;;;6.30;94.50;;;;;;5031629;28;20142;-74
2023/01/18 11:48:32;;;;;;;9.18;4.72;;;6.30;94.30;;;;;;5031921;28;20033;-75
2023/01/18 11:51:26;;;;;;;11.65;5.60;;;6.30;94.60;;;;;;5033296;28;20030;-74
2023/01/18 11:54:05;;;;;;;11.30;5.90;;;6.30;94.40;;;;;;5031785;28;20062;-75
2023/01/18 11:56:58;;;;;;;8.57;5.30;;;6.30;94.50;;;;;;5031822;28;20022;-75
2023/01/18 11:59:38;;;;;;;13.57;5.50;;;6.30;94.80;;;;;;5035972;28;20120;-75
2023/01/18 12:02:29;;;;;;;13.27;5.75;;;6.30;94.90;;;;;;5036844;28;20249;-75
2023/01/18 12:05:15;;;;;;;16.98;6.38;;;6.30;94.80;;;;;;5036734;28;20021;-75
2023/01/18 12:07:50;;;;;;;13.77;6.20;;;6.30;94.90;;;;;;5036311;28;20037;-76
2023/01/18 12:10:24;;;;;;;9.68;5.88;;;6.20;95.00;;;;;;5035197;28;20040;-76
2023/01/18 12:13:01;;;;;;;12.18;5.68;;;6.30;95.50;;;;;;5036011;28;20025;-75
2023/01/18 12:15:41;;;;;;;9.80;5.72;;;6.30;95.50;;;;;;5034781;28;20025;-75
2023/01/18 12:18:29;;;;;;;10.95;5.40;;;6.40;95.40;;;;;;5035568;28;20382;-75
2023/01/18 12:21:09;;;;;;;10.15;5.28;;;6.40;95.00;;;;;;5035350;28;20029;-75
2023/01/18 12:24:12;;;;;;;11.13;5.95;;;6.40;95.10;;;;;;5036442;28;20025;-74
2023/01/18 12:26:46;;;;;;;10.38;5.25;;;6.40;95.20;;;;;;5036644;28;20029;-75
2023/01/18 12:29:42;;;;;;;11.80;5.07;;;6.40;95.00;;;;;;5034961;28;20033;-75
2023/01/18 12:32:35;;;;;;;9.48;4.43;;;6.40;95.20;;;;;;5034721;28;20030;-74
2023/01/18 12:35:15;;;;;;;14.18;5.13;;;6.40;95.10;;;;;;5035265;28;20108;-75
2023/01/18 12:38:03;;;;;;;8.30;4.47;;;6.40;95.20;;;;;;5034963;28;20470;-73
2023/01/18 12:40:34;;;;;;;8.52;5.07;;;6.40;95.50;;;;;;5034139;28;20044;-71
2023/01/18 12:43:10;;;;;;;11.05;4.50;;;6.50;95.50;;;;;;5036119;28;20057;-72
2023/01/18 12:45:40;;;;;;;8.10;4.20;;;6.50;95.60;;;;;;5034017;28;20041;-71
2023/01/18 12:48:26;;;;;;;9.45;4.25;;;6.50;95.30;;;;;;5034422;28;20037;-71
2023/01/18 12:50:55;;;;;;;6.50;3.88;;;6.50;95.00;;;;;;5035168;28;20466;-73
2023/01/18 12:53:38;;;;;;;8.63;4.53;;;6.40;95.00;;;;;;5035627;28;20026;-71
2023/01/18 12:56:19;;;;;;;8.95;4.00;;;6.50;95.30;;;;;;5036488;28;20120;-72
2023/01/18 12:58:51;;;;;;;9.57;4.50;;;6.60;95.50;;;;;;5036140;28;20033;-72
2023/01/18 13:01:20;;;;;;;8.70;4.13;;;6.60;94.70;;;;;;5035573;28;20021;-72
2023/01/18 13:03:49;;;;;;;7.88;4.18;;;6.50;94.30;;;;;;5035691;28;20275;-72
2023/01/18 13:06:19;;;;;;;7.68;3.97;;;6.60;94.40;;;;;;5033813;28;20467;-72
2023/01/18 13:08:51;;;;;;;6.80;3.97;;;6.60;94.70;;;;;;5034248;28;20024;-72
2023/01/18 13:11:19;;;;;;;9.10;4.03;;;6.60;94.50;;;;;;5035806;28;20193;-71
2023/01/18 13:13:48;;;;;;;9.95;3.80;;;6.60;94.30;;;;;;5034401;28;20053;-71
2023/01/18 13:16:44;;;;;;;9.70;3.83;;;6.50;94.20;;;;;;5035155;28;20026;-72
2023/01/18 13:19:21;;;;;;;11.57;3.88;;;6.60;94.10;;;;;;5035689;28;20377;-72
2023/01/18 13:22:21;;;;;;;7.68;4.05;;;6.60;94.40;;;;;;5035559;28;20032;-71
2023/01/18 13:25:08;;;;;;;9.68;4.18;;;6.70;94.40;;;;;;5034064;28;20025;-74
2023/01/18 13:27:36;;;;;;;11.93;4.32;;;6.90;94.70;;;;;;5034115;28;20091;-76
2023/01/18 13:30:15;;;;;;;11.07;4.85;;;7.00;94.10;;;;;;5035068;28;20480;-76
2023/01/18 13:32:43;;;;;;;7.70;4.43;;;7.00;93.90;;;;;;5035339;28;20039;-76
2023/01/18 13:35:18;;;;;;;8.88;3.97;;;6.90;94.00;;;;;;5035070;28;20056;-74
2023/01/18 13:37:50;;;;;;;7.13;3.83;;;6.90;93.90;;;;;;5034217;28;20022;-74
2023/01/18 13:40:42;;;;;;;7.28;3.60;;;6.90;93.70;;;;;;5035108;28;20040;-75